Time;durP1;ratioP1;P1;durP2;ratioP2;P2;SDS_P1;SDS_P2;PMS_P1;PMS_P2;Temp;Humidity;BMP_temperature;BMP_pressure;BME280_temperature;BME280_humidity;BME280_pressure;Samples;Min_cycle;Max_cycle;Signal;HPM_P1;HPM_P2
2022/07/13 00:00:15;;;;;;;3.53;2.10;;;21.00;99.90;;;;;;5001120;28;20409;-78
2022/07/13 00:02:41;;;;;;;2.60;2.10;;;21.00;99.90;;;;;;5001413;28;20030;-78
2022/07/13 00:05:07;;;;;;;6.85;2.05;;;21.00;99.90;;;;;;5003789;28;20058;-77
2022/07/13 00:07:34;;;;;;;3.47;2.33;;;21.00;99.90;;;;;;5001089;28;20097;-77
2022/07/13 00:09:59;;;;;;;3.17;2.08;;;21.00;99.90;;;;;;5002236;28;20402;-77
2022/07/13 00:12:25;;;;;;;2.67;1.90;;;21.00;99.90;;;;;;5002637;28;20025;-77
2022/07/13 00:14:51;;;;;;;2.97;1.70;;;21.00;99.90;;;;;;5002845;28;20027;-77
2022/07/13 00:17:17;;;;;;;2.40;1.58;;;21.00;99.90;;;;;;5006624;28;20409;-77
2022/07/13 00:20:01;;;;;;;2.50;1.70;;;21.00;99.90;;;;;;5007153;28;20065;-76
2022/07/13 00:22:27;;;;;;;2.33;1.60;;;21.00;99.90;;;;;;5002585;28;20061;-76
2022/07/13 00:24:52;;;;;;;2.17;1.42;;;21.00;99.90;;;;;;5002895;28;20472;-76
2022/07/13 00:27:37;;;;;;;1.50;1.33;;;21.00;99.90;;;;;;5004273;28;20034;-77
2022/07/13 00:30:06;;;;;;;2.63;1.60;;;21.00;99.90;;;;;;5000971;28;20031;-76
2022/07/13 00:38:01;;;;;;;2.05;1.40;;;20.90;99.90;;;;;;4998715;28;20030;-78
2022/07/13 00:40:27;;;;;;;4.40;1.20;;;20.90;99.90;;;;;;4999621;28;20149;-77
2022/07/13 00:42:53;;;;;;;3.15;1.55;;;20.90;99.90;;;;;;5000852;28;20022;-78
2022/07/13 00:48:22;;;;;;;2.33;1.60;;;20.90;99.90;;;;;;4996330;28;20085;-77
2022/07/13 00:54:10;;;;;;;1.48;1.25;;;20.90;99.90;;;;;;5000178;28;20057;-77
2022/07/13 00:56:36;;;;;;;2.70;1.90;;;20.90;99.90;;;;;;5001836;28;20026;-77
2022/07/13 00:59:06;;;;;;;2.10;1.50;;;20.90;99.90;;;;;;4998209;28;20058;-77
2022/07/13 01:01:31;;;;;;;1.70;1.45;;;20.90;99.90;;;;;;4997732;28;20043;-80
2022/07/13 01:03:57;;;;;;;3.28;1.10;;;20.90;99.90;;;;;;5001748;28;20053;-77
2022/07/13 01:06:23;;;;;;;2.50;1.40;;;20.90;99.90;;;;;;5002489;28;20540;-78
2022/07/13 01:08:48;;;;;;;1.10;1.00;;;20.90;99.90;;;;;;5000185;28;20461;-78
2022/07/13 01:11:14;;;;;;;2.75;1.50;;;20.90;99.90;;;;;;4999742;28;20089;-79
2022/07/13 01:13:40;;;;;;;2.08;1.27;;;20.90;99.90;;;;;;5001043;28;20400;-78
2022/07/13 01:16:08;;;;;;;3.63;1.40;;;20.90;99.90;;;;;;4999886;28;20026;-77
2022/07/13 01:18:35;;;;;;;2.65;1.30;;;20.80;99.90;;;;;;5001227;28;20025;-77
2022/07/13 01:21:01;;;;;;;1.50;1.30;;;20.90;99.90;;;;;;4999119;28;20056;-76
2022/07/13 01:23:27;;;;;;;1.58;1.23;;;20.90;99.90;;;;;;5000647;28;20021;-77
2022/07/13 01:25:56;;;;;;;1.58;1.17;;;20.90;99.90;;;;;;4998688;28;20498;-77
2022/07/13 01:28:23;;;;;;;1.17;1.08;;;20.80;99.90;;;;;;5000740;28;20508;-77
2022/07/13 01:31:08;;;;;;;2.00;1.30;;;20.80;99.90;;;;;;4997253;28;20062;-78
2022/07/13 01:33:34;;;;;;;2.30;1.20;;;20.80;99.90;;;;;;5000871;28;20088;-77
2022/07/13 01:36:00;;;;;;;2.13;1.00;;;20.80;99.90;;;;;;5000953;28;20033;-77
2022/07/13 01:38:25;;;;;;;2.67;1.35;;;20.80;99.90;;;;;;5001951;28;20022;-78
2022/07/13 01:40:51;;;;;;;1.83;1.30;;;20.80;99.90;;;;;;4999869;28;20043;-77
2022/07/13 01:43:17;;;;;;;1.98;1.25;;;20.80;99.90;;;;;;4999919;28;20505;-77
2022/07/13 01:45:45;;;;;;;2.05;1.10;;;20.80;99.90;;;;;;5000175;28;20053;-76
2022/07/13 01:48:48;;;;;;;2.05;1.30;;;20.80;99.90;;;;;;4998538;28;20092;-77
2022/07/13 01:51:14;;;;;;;1.80;1.30;;;20.80;99.90;;;;;;4997118;28;20029;-78
2022/07/13 01:53:40;;;;;;;1.30;1.10;;;20.80;99.90;;;;;;5001425;28;20036;-77
2022/07/13 01:56:25;;;;;;;1.95;1.40;;;20.80;99.90;;;;;;4999938;28;20026;-77
2022/07/13 01:58:51;;;;;;;1.55;1.27;;;20.80;99.90;;;;;;5015585;28;20375;-76
2022/07/13 02:01:16;;;;;;;1.58;1.23;;;20.80;99.90;;;;;;4998582;28;20109;-77
2022/07/13 02:03:42;;;;;;;2.38;1.55;;;20.80;99.90;;;;;;4998438;28;20069;-77
2022/07/13 02:06:08;;;;;;;3.35;1.40;;;20.80;99.90;;;;;;4997514;28;20140;-77
2022/07/13 02:08:34;;;;;;;1.73;1.58;;;20.70;99.90;;;;;;5001819;28;20065;-78
2022/07/13 02:11:00;;;;;;;3.10;1.63;;;20.70;99.90;;;;;;5000321;28;20077;-77
2022/07/13 02:13:26;;;;;;;1.98;1.48;;;20.70;99.90;;;;;;4997813;28;20490;-78
2022/07/13 02:15:52;;;;;;;3.25;1.45;;;20.70;99.90;;;;;;4999119;28;20058;-77
2022/07/13 02:18:18;;;;;;;2.03;1.80;;;20.70;99.90;;;;;;5002611;28;20061;-76
2022/07/13 02:21:02;;;;;;;1.63;1.15;;;20.60;99.90;;;;;;5006331;28;20500;-75
2022/07/13 02:23:28;;;;;;;2.72;1.40;;;20.70;99.90;;;;;;4997428;28;20022;-77
2022/07/13 02:26:13;;;;;;;3.40;1.75;;;20.70;99.90;;;;;;4997490;28;20061;-77
2022/07/13 02:28:38;;;;;;;1.60;1.42;;;20.70;99.90;;;;;;5000805;28;20065;-77
2022/07/13 02:31:04;;;;;;;2.33;1.30;;;20.70;99.90;;;;;;5001021;28;20495;-77
2022/07/13 02:33:30;;;;;;;2.55;1.40;;;20.70;99.90;;;;;;4998751;28;20026;-77
2022/07/13 02:35:55;;;;;;;2.45;1.60;;;20.70;99.90;;;;;;4999474;28;20022;-78
2022/07/13 02:38:30;;;;;;;1.83;1.50;;;20.70;99.90;;;;;;5006633;28;20026;-78
2022/07/13 02:40:56;;;;;;;1.75;1.50;;;20.70;99.90;;;;;;4999622;28;20030;-76
2022/07/13 02:43:21;;;;;;;1.40;1.30;;;20.60;99.90;;;;;;5013301;28;20022;-76
2022/07/13 02:45:47;;;;;;;3.67;1.70;;;20.70;99.90;;;;;;5000005;28;20089;-77
2022/07/13 02:48:12;;;;;;;1.65;1.40;;;20.60;99.90;;;;;;4997608;28;20030;-77
2022/07/13 02:50:38;;;;;;;3.08;1.70;;;20.60;99.90;;;;;;4999087;28;20030;-77
2022/07/13 02:53:04;;;;;;;2.00;1.65;;;20.60;99.90;;;;;;4997548;28;20027;-76
2022/07/13 02:55:29;;;;;;;2.95;1.60;;;20.60;99.90;;;;;;5000046;28;20022;-76
2022/07/13 02:57:55;;;;;;;2.25;1.50;;;20.60;99.90;;;;;;4999366;28;20375;-77
2022/07/13 03:00:22;;;;;;;1.58;1.48;;;20.60;99.90;;;;;;4997561;28;20108;-77
2022/07/13 03:02:48;;;;;;;3.17;1.50;;;20.60;99.90;;;;;;4981036;28;20026;-78
2022/07/13 03:05:13;;;;;;;2.78;1.35;;;20.60;99.90;;;;;;4999512;28;20027;-78
2022/07/13 03:07:39;;;;;;;1.55;1.40;;;20.60;99.90;;;;;;4996866;28;20410;-78
2022/07/13 03:10:24;;;;;;;2.22;1.73;;;20.60;99.90;;;;;;4997708;28;20064;-77
2022/07/13 03:12:49;;;;;;;2.35;1.50;;;20.60;99.90;;;;;;4996209;28;20033;-76
2022/07/13 03:15:15;;;;;;;1.92;1.50;;;20.60;99.90;;;;;;4998143;28;20030;-77
2022/07/13 03:17:41;;;;;;;3.13;1.63;;;20.60;99.90;;;;;;5000757;28;20028;-77
2022/07/13 03:20:08;;;;;;;2.08;1.60;;;20.60;99.90;;;;;;4999719;28;20054;-77
2022/07/13 03:22:53;;;;;;;2.88;1.45;;;20.60;99.90;;;;;;4998292;28;20034;-76
2022/07/13 03:25:19;;;;;;;2.45;1.50;;;20.60;99.90;;;;;;4995587;28;20426;-76
2022/07/13 03:27:44;;;;;;;2.65;1.75;;;20.60;99.90;;;;;;4997680;28;20048;-78
2022/07/13 03:30:10;;;;;;;3.80;1.63;;;20.60;99.90;;;;;;4998638;28;20033;-77
2022/07/13 03:32:54;;;;;;;3.72;1.50;;;20.50;99.90;;;;;;4998586;28;20026;-77
2022/07/13 03:35:20;;;;;;;1.88;1.45;;;20.50;99.90;;;;;;5000757;28;20395;-77
2022/07/13 03:37:46;;;;;;;2.67;1.75;;;20.50;99.90;;;;;;4999717;28;20028;-78
2022/07/13 03:40:31;;;;;;;2.40;1.58;;;20.50;99.90;;;;;;4999673;28;20038;-77
2022/07/13 03:42:56;;;;;;;2.33;1.83;;;20.50;99.90;;;;;;5001361;28;20026;-77
2022/07/13 03:45:22;;;;;;;3.00;1.50;;;20.50;99.90;;;;;;5001744;28;20049;-76
2022/07/13 03:47:47;;;;;;;2.30;1.40;;;20.50;99.90;;;;;;5004338;28;20057;-76
2022/07/13 03:50:13;;;;;;;3.78;1.75;;;20.50;99.90;;;;;;5010036;28;20038;-76
2022/07/13 03:52:39;;;;;;;1.80;1.40;;;20.50;99.90;;;;;;5008232;28;20057;-77
2022/07/13 03:55:24;;;;;;;3.20;1.58;;;20.60;99.90;;;;;;5004622;28;20029;-77
2022/07/13 03:57:49;;;;;;;2.45;1.60;;;20.60;99.90;;;;;;5002274;28;20050;-77
2022/07/13 04:00:15;;;;;;;2.28;1.85;;;20.60;99.90;;;;;;4987204;28;20497;-77
2022/07/13 04:02:41;;;;;;;2.08;1.63;;;20.60;99.90;;;;;;4999391;28;20450;-76
2022/07/13 04:05:07;;;;;;;3.10;1.60;;;20.60;99.90;;;;;;5001502;28;20558;-78
2022/07/13 04:07:33;;;;;;;3.42;1.80;;;20.60;99.90;;;;;;5001120;28;20037;-78
2022/07/13 04:10:21;;;;;;;1.80;1.60;;;20.60;99.90;;;;;;5003777;28;20033;-77
2022/07/13 04:12:48;;;;;;;2.80;1.73;;;20.60;99.90;;;;;;5001032;28;20025;-78
2022/07/13 04:15:14;;;;;;;2.50;1.75;;;20.60;99.90;;;;;;5004753;28;20041;-77
2022/07/13 04:17:41;;;;;;;2.20;1.90;;;20.60;99.90;;;;;;4998847;28;20478;-77
2022/07/13 04:20:07;;;;;;;3.47;1.90;;;20.60;99.90;;;;;;5003803;28;20942;-77
2022/07/13 04:22:33;;;;;;;2.42;1.90;;;20.60;99.90;;;;;;4998621;28;20038;-77
2022/07/13 04:24:59;;;;;;;2.17;1.95;;;20.60;99.90;;;;;;5001143;28;20095;-76
2022/07/13 04:30:47;;;;;;;2.22;1.90;;;20.70;99.90;;;;;;5003167;28;20498;-77
2022/07/13 04:33:13;;;;;;;2.50;1.60;;;20.70;99.90;;;;;;4985395;28;20030;-76
2022/07/13 04:35:39;;;;;;;2.92;1.95;;;20.70;99.90;;;;;;4999581;28;20013;-76
2022/07/13 04:38:05;;;;;;;2.45;1.80;;;20.70;99.90;;;;;;5000085;28;20109;-77
2022/07/13 04:40:30;;;;;;;2.40;2.03;;;20.70;99.90;;;;;;4999476;28;20044;-76
2022/07/13 04:42:56;;;;;;;3.05;2.20;;;20.70;99.90;;;;;;5001471;28;20036;-77
2022/07/13 04:45:22;;;;;;;4.13;2.13;;;20.80;99.90;;;;;;5000424;28;20022;-77
2022/07/13 04:47:49;;;;;;;3.08;1.67;;;20.80;99.90;;;;;;4999360;28;20119;-76
2022/07/13 04:50:14;;;;;;;2.80;2.20;;;20.80;99.90;;;;;;4982955;28;20029;-77
2022/07/13 04:52:40;;;;;;;1.85;1.63;;;20.80;99.90;;;;;;5001921;28;20023;-77
2022/07/13 04:55:07;;;;;;;3.15;2.10;;;20.80;99.90;;;;;;5003841;28;20035;-78
2022/07/13 04:57:33;;;;;;;3.47;1.92;;;20.80;99.90;;;;;;4996203;28;20076;-78
2022/07/13 04:59:59;;;;;;;2.97;1.80;;;20.90;99.90;;;;;;5001824;28;20032;-78
2022/07/13 05:02:25;;;;;;;3.15;1.85;;;20.90;99.90;;;;;;4998004;28;20046;-76
2022/07/13 05:04:50;;;;;;;1.83;1.52;;;20.90;99.90;;;;;;5000666;28;20021;-77
2022/07/13 05:07:16;;;;;;;3.13;1.92;;;20.90;99.90;;;;;;5001076;28;20030;-77
2022/07/13 05:09:42;;;;;;;2.63;1.70;;;20.90;99.90;;;;;;4999657;28;20042;-77
2022/07/13 05:12:08;;;;;;;2.15;1.80;;;20.90;99.90;;;;;;5000517;28;20018;-80
2022/07/13 05:14:35;;;;;;;4.25;1.75;;;21.00;99.90;;;;;;5001607;28;20034;-78
2022/07/13 05:17:01;;;;;;;3.22;1.98;;;21.00;99.90;;;;;;4996592;28;20026;-76
2022/07/13 05:19:46;;;;;;;3.38;1.92;;;21.00;99.90;;;;;;5001919;28;20050;-76
2022/07/13 05:22:30;;;;;;;2.65;2.10;;;21.00;99.90;;;;;;5013686;28;20054;-77
2022/07/13 05:25:15;;;;;;;2.33;1.80;;;21.00;99.90;;;;;;5001814;28;20030;-77
2022/07/13 05:27:40;;;;;;;2.28;1.83;;;21.00;99.90;;;;;;4985286;28;20545;-79
2022/07/13 05:30:07;;;;;;;4.45;2.03;;;21.00;99.90;;;;;;4982275;28;20084;-77
2022/07/13 05:32:32;;;;;;;3.00;2.17;;;20.90;99.90;;;;;;5001503;28;20473;-78
2022/07/13 05:34:58;;;;;;;3.00;1.52;;;20.90;99.90;;;;;;4997880;28;20054;-77
2022/07/13 05:37:24;;;;;;;4.20;1.45;;;20.90;99.90;;;;;;5001279;28;20359;-80
2022/07/13 05:42:34;;;;;;;6.93;1.90;;;20.90;99.90;;;;;;5000162;28;20124;-77
2022/07/13 05:44:59;;;;;;;3.35;2.00;;;20.90;99.90;;;;;;4997617;28;20062;-77
2022/07/13 05:47:25;;;;;;;4.03;2.03;;;20.90;99.90;;;;;;4997958;28;20030;-77
2022/07/13 05:49:50;;;;;;;3.92;2.08;;;21.00;99.90;;;;;;5000061;28;20105;-77
2022/07/13 05:52:16;;;;;;;4.22;2.25;;;21.00;99.90;;;;;;4999885;28;20076;-77
2022/07/13 05:54:42;;;;;;;4.47;2.15;;;21.10;99.90;;;;;;4998465;28;20023;-76
2022/07/13 05:57:08;;;;;;;3.30;2.00;;;21.10;99.90;;;;;;5007763;28;20466;-76
2022/07/13 05:59:36;;;;;;;4.63;2.42;;;21.20;99.90;;;;;;4998298;28;20125;-78
2022/07/13 06:02:02;;;;;;;4.05;2.00;;;21.20;99.90;;;;;;5000157;28;20065;-78
2022/07/13 06:04:28;;;;;;;5.10;2.60;;;21.30;99.90;;;;;;4998435;28;20502;-78
2022/07/13 06:09:38;;;;;;;5.55;2.25;;;21.40;99.90;;;;;;5001419;28;20040;-77
2022/07/13 06:12:03;;;;;;;4.60;2.40;;;21.50;99.90;;;;;;5000920;28;20431;-77
2022/07/13 06:14:29;;;;;;;3.33;2.13;;;21.50;99.90;;;;;;5018864;28;20018;-77
2022/07/13 06:16:55;;;;;;;5.53;2.17;;;21.50;99.90;;;;;;5024484;28;20017;-77
2022/07/13 06:19:39;;;;;;;5.70;1.55;;;21.60;99.90;;;;;;5022229;28;20046;-78
2022/07/13 06:22:05;;;;;;;1.98;1.50;;;21.50;99.90;;;;;;5024047;28;20025;-78
2022/07/13 06:24:30;;;;;;;3.20;2.17;;;21.60;99.90;;;;;;4985415;28;20117;-77
2022/07/13 06:26:56;;;;;;;4.85;2.20;;;21.70;99.90;;;;;;4999886;28;20042;-77
2022/07/13 06:29:22;;;;;;;2.50;1.90;;;21.70;99.90;;;;;;4999784;28;20065;-77
2022/07/13 06:31:48;;;;;;;4.50;2.30;;;21.80;99.90;;;;;;4979228;28;20053;-77
2022/07/13 06:34:14;;;;;;;6.47;1.90;;;21.90;99.90;;;;;;4998564;28;20026;-77
2022/07/13 06:36:58;;;;;;;5.97;2.20;;;22.00;99.90;;;;;;4999346;28;20033;-77
2022/07/13 06:39:24;;;;;;;3.63;2.10;;;22.00;99.90;;;;;;5001117;28;20509;-78
2022/07/13 06:41:49;;;;;;;2.63;2.10;;;22.00;99.90;;;;;;4997789;28;20034;-77
2022/07/13 06:44:15;;;;;;;4.18;2.03;;;22.10;99.90;;;;;;4997461;28;20031;-78
2022/07/13 06:47:00;;;;;;;3.80;2.55;;;22.00;99.90;;;;;;4999180;28;20030;-78
2022/07/13 06:49:28;;;;;;;3.47;2.08;;;22.00;99.90;;;;;;4999677;28;20193;-77
2022/07/13 06:51:57;;;;;;;6.40;2.10;;;21.90;99.90;;;;;;4996813;28;20030;-76
2022/07/13 06:54:23;;;;;;;5.13;2.50;;;21.80;99.90;;;;;;4999473;28;20029;-78
2022/07/13 06:57:07;;;;;;;3.10;2.35;;;21.80;99.90;;;;;;4998333;28;20117;-78
2022/07/13 06:59:33;;;;;;;3.38;2.78;;;21.70;99.90;;;;;;4998476;28;20046;-77
2022/07/13 07:01:58;;;;;;;3.90;2.40;;;21.60;99.90;;;;;;4997065;28;20038;-77
2022/07/13 07:04:24;;;;;;;3.58;2.70;;;21.60;99.90;;;;;;4997956;28;20021;-77
2022/07/13 07:06:50;;;;;;;3.15;2.15;;;21.60;99.90;;;;;;4997591;28;20022;-77
2022/07/13 07:09:16;;;;;;;4.35;2.50;;;21.50;99.90;;;;;;4996574;28;20030;-77
2022/07/13 07:11:44;;;;;;;5.50;2.83;;;21.40;99.90;;;;;;4997814;28;20337;-76
2022/07/13 07:14:10;;;;;;;4.20;1.95;;;21.40;99.90;;;;;;5001396;28;20026;-78
2022/07/13 07:16:37;;;;;;;4.93;2.63;;;21.40;99.90;;;;;;5002468;28;20033;-78
2022/07/13 07:19:03;;;;;;;3.35;2.20;;;21.40;99.90;;;;;;5002380;28;20062;-77
2022/07/13 07:21:29;;;;;;;5.90;2.53;;;21.40;99.90;;;;;;5003284;28;20033;-78
2022/07/13 07:23:55;;;;;;;5.57;2.78;;;21.40;99.90;;;;;;5000767;28;20034;-78
2022/07/13 07:26:21;;;;;;;4.10;2.50;;;21.30;99.90;;;;;;5005260;28;20038;-76
2022/07/13 07:28:47;;;;;;;3.53;2.30;;;21.30;99.90;;;;;;5001740;28;20030;-76
2022/07/13 07:31:12;;;;;;;2.97;2.50;;;21.30;99.90;;;;;;5002699;28;20101;-77
2022/07/13 07:33:38;;;;;;;4.65;2.67;;;21.30;99.90;;;;;;5000411;28;20045;-78
2022/07/13 07:36:05;;;;;;;3.03;2.22;;;21.40;99.90;;;;;;5004196;28;20481;-78
2022/07/13 07:38:31;;;;;;;4.28;2.40;;;21.40;99.90;;;;;;5001016;28;20053;-77
2022/07/13 07:40:58;;;;;;;3.30;2.00;;;21.50;99.90;;;;;;5001005;28;20025;-77
2022/07/13 07:43:24;;;;;;;3.30;2.35;;;21.50;99.90;;;;;;4987288;28;20545;-78
2022/07/13 07:45:50;;;;;;;4.97;2.42;;;21.60;99.90;;;;;;5002622;28;20105;-80
2022/07/13 07:54:03;;;;;;;4.15;2.33;;;21.80;99.90;;;;;;4999454;28;20165;-77
2022/07/13 07:56:28;;;;;;;5.60;2.58;;;21.80;99.90;;;;;;5002580;28;20402;-77
2022/07/13 07:58:54;;;;;;;6.38;2.70;;;21.80;99.90;;;;;;5004273;28;20025;-77
2022/07/13 08:01:20;;;;;;;5.22;2.35;;;21.90;99.90;;;;;;5003660;28;20022;-77
2022/07/13 08:03:45;;;;;;;4.25;2.28;;;22.00;99.90;;;;;;5001779;28;20072;-78
2022/07/13 08:08:55;;;;;;;4.82;2.65;;;22.20;99.90;;;;;;5004840;28;20552;-77
2022/07/13 08:11:21;;;;;;;3.88;2.00;;;22.40;99.90;;;;;;4998676;28;20027;-76
2022/07/13 08:13:47;;;;;;;5.10;2.95;;;22.50;99.90;;;;;;5002179;28;20486;-76
2022/07/13 08:16:16;;;;;;;5.22;2.50;;;22.50;99.90;;;;;;5001704;28;20025;-77
2022/07/13 08:18:45;;;;;;;6.07;2.92;;;22.60;99.90;;;;;;5002503;28;20041;-78
2022/07/13 08:21:12;;;;;;;3.30;2.20;;;22.70;99.90;;;;;;5001005;28;20018;-78
2022/07/13 08:23:53;;;;;;;5.65;2.80;;;22.60;99.90;;;;;;4996487;28;20117;-77
2022/07/13 08:26:24;;;;;;;4.72;2.65;;;22.70;99.90;;;;;;4999300;28;20109;-77
2022/07/13 08:28:51;;;;;;;;;;;22.70;99.90;;;;;;4987516;28;20556;-76
2022/07/13 08:31:17;;;;;;;4.20;2.92;;;22.80;99.90;;;;;;4995800;28;19913;-77
2022/07/13 08:39:12;;;;;;;4.03;3.17;;;22.90;99.90;;;;;;5002367;28;20025;-78
2022/07/13 08:41:39;;;;;;;3.35;2.25;;;22.80;99.90;;;;;;5001292;28;20533;-77
2022/07/13 08:44:05;;;;;;;5.28;2.55;;;22.90;99.90;;;;;;5005579;28;20085;-79
2022/07/13 08:46:31;;;;;;;4.07;2.42;;;22.90;99.90;;;;;;4980564;28;20057;-78
2022/07/13 08:48:57;;;;;;;3.03;2.40;;;22.90;99.90;;;;;;4983007;28;20066;-76
2022/07/13 08:51:24;;;;;;;2.97;2.40;;;22.90;99.90;;;;;;5001638;28;20521;-76
2022/07/13 08:53:51;;;;;;;5.97;2.85;;;23.00;99.90;;;;;;5000746;28;20105;-77
2022/07/13 08:59:02;;;;;;;5.75;3.25;;;23.10;99.90;;;;;;5002358;28;20038;-76
2022/07/13 09:01:49;;;;;;;5.50;2.90;;;23.10;99.90;;;;;;5000287;28;20521;-77
2022/07/13 09:04:14;;;;;;;3.95;2.70;;;23.20;99.90;;;;;;5001217;28;20405;-77
2022/07/13 09:06:42;;;;;;;4.20;2.92;;;23.30;99.90;;;;;;5000290;28;20018;-78
2022/07/13 09:09:43;;;;;;;3.35;2.58;;;23.40;99.90;;;;;;5000915;28;20034;-78
2022/07/13 09:12:08;;;;;;;4.78;2.65;;;23.60;99.90;;;;;;5000494;28;20097;-78
2022/07/13 09:14:35;;;;;;;4.85;2.60;;;23.70;99.90;;;;;;4982874;28;20030;-77
2022/07/13 09:17:26;;;;;;;4.68;2.53;;;23.70;99.90;;;;;;4983259;28;20032;-78
2022/07/13 09:19:52;;;;;;;4.57;3.00;;;23.90;99.90;;;;;;5001036;28;20034;-79
2022/07/13 09:22:18;;;;;;;7.10;3.25;;;23.90;99.90;;;;;;5003299;28;20389;-78
2022/07/13 09:24:45;;;;;;;3.80;2.80;;;24.00;99.90;;;;;;4996148;28;20030;-78
2022/07/13 09:27:11;;;;;;;5.32;3.30;;;24.20;99.90;;;;;;5001797;28;20117;-78
2022/07/13 09:29:37;;;;;;;4.20;3.50;;;24.20;99.90;;;;;;4998986;28;20482;-78
2022/07/13 09:32:10;;;;;;;7.18;3.63;;;24.10;99.90;;;;;;4985584;28;20103;-77
2022/07/13 09:34:52;;;;;;;4.88;3.55;;;24.00;99.90;;;;;;5000341;28;20401;-79
2022/07/13 09:37:20;;;;;;;4.13;3.17;;;24.10;99.90;;;;;;5000063;28;20076;-78
2022/07/13 09:40:08;;;;;;;7.15;3.40;;;24.20;99.90;;;;;;4982321;28;20421;-78
2022/07/13 09:42:39;;;;;;;4.85;3.85;;;24.30;99.90;;;;;;4999582;28;20023;-78
2022/07/13 09:48:13;;;;;;;5.00;3.85;;;24.30;99.90;;;;;;5000930;28;20049;-80
2022/07/13 09:50:40;;;;;;;6.25;3.85;;;24.40;99.90;;;;;;5021209;28;20029;-77
2022/07/13 09:53:32;;;;;;;9.20;4.50;;;24.50;99.90;;;;;;4998418;28;20105;-78
2022/07/13 09:56:17;;;;;;;7.30;5.22;;;24.60;99.80;;;;;;5017636;28;20224;-78
2022/07/13 09:58:43;;;;;;;9.00;3.70;;;24.50;99.60;;;;;;5015185;28;20092;-78
2022/07/13 10:01:10;;;;;;;5.22;3.63;;;24.60;99.60;;;;;;4997188;28;20034;-77
2022/07/13 10:03:37;;;;;;;9.52;4.10;;;24.70;99.90;;;;;;5021550;28;20084;-78
2022/07/13 10:06:22;;;;;;;6.20;4.15;;;24.80;99.70;;;;;;5001713;28;20508;-78
2022/07/13 10:08:49;;;;;;;9.25;4.30;;;24.80;99.70;;;;;;4999404;28;20116;-78
2022/07/13 10:11:15;;;;;;;6.55;3.97;;;24.70;98.60;;;;;;4995989;28;20017;-78
2022/07/13 10:13:44;;;;;;;6.30;3.65;;;24.70;99.00;;;;;;4999939;28;20056;-78
2022/07/13 10:16:28;;;;;;;4.78;3.38;;;24.70;98.80;;;;;;4998894;28;20022;-77
2022/07/13 10:18:57;;;;;;;4.85;3.30;;;24.60;98.90;;;;;;5000004;28;20109;-78
2022/07/13 10:21:33;;;;;;;7.13;3.75;;;24.60;99.00;;;;;;4996314;28;20042;-77
2022/07/13 10:23:59;;;;;;;5.60;3.88;;;24.50;98.80;;;;;;5000678;28;20613;-77
2022/07/13 10:26:25;;;;;;;5.90;3.00;;;24.50;98.90;;;;;;4981962;28;20380;-77
2022/07/13 10:29:11;;;;;;;6.40;3.53;;;24.50;99.10;;;;;;5000383;28;20033;-77
2022/07/13 10:31:40;;;;;;;6.35;3.45;;;24.50;99.20;;;;;;5000414;28;20026;-77
2022/07/13 10:34:08;;;;;;;7.10;3.40;;;24.50;99.30;;;;;;4999187;28;20027;-79
2022/07/13 10:36:57;;;;;;;4.68;3.40;;;24.50;98.80;;;;;;4998635;28;20038;-78
2022/07/13 10:39:29;;;;;;;4.32;2.95;;;24.60;99.00;;;;;;5000586;28;20031;-77
2022/07/13 10:42:02;;;;;;;4.50;3.13;;;24.70;99.30;;;;;;4998618;28;20512;-79
2022/07/13 10:44:41;;;;;;;4.68;3.40;;;24.80;99.30;;;;;;5001476;28;20273;-77
2022/07/13 10:47:12;;;;;;;4.10;3.00;;;24.80;99.60;;;;;;5002690;28;20026;-78
2022/07/13 10:49:47;;;;;;;3.42;2.92;;;24.80;99.50;;;;;;5005246;28;20022;-80
2022/07/13 10:52:22;;;;;;;4.00;3.40;;;24.80;99.30;;;;;;5004773;28;20034;-78
2022/07/13 10:55:03;;;;;;;7.85;3.30;;;24.90;99.70;;;;;;5019560;28;20096;-79
2022/07/13 10:57:33;;;;;;;7.22;3.80;;;25.00;99.00;;;;;;5006390;28;20307;-78
2022/07/13 11:00:30;;;;;;;4.13;3.45;;;25.10;99.70;;;;;;5006697;28;20031;-80
2022/07/13 11:03:05;;;;;;;4.03;3.63;;;25.10;99.90;;;;;;5005616;28;20050;-79
2022/07/13 11:05:35;;;;;;;7.78;3.88;;;25.20;99.50;;;;;;5005627;28;20034;-78
2022/07/13 11:08:30;;;;;;;6.35;4.00;;;25.20;99.40;;;;;;5006794;28;20037;-78
2022/07/13 11:11:12;;;;;;;8.30;3.63;;;25.30;99.60;;;;;;4987486;28;20573;-79
2022/07/13 11:13:39;;;;;;;7.82;3.70;;;25.50;99.50;;;;;;5020413;28;20036;-77
2022/07/13 11:16:08;;;;;;;4.72;3.22;;;25.50;99.40;;;;;;5007086;28;20026;-77
2022/07/13 11:18:38;;;;;;;5.55;4.07;;;25.60;99.50;;;;;;5003594;28;20030;-77
2022/07/13 11:21:05;;;;;;;6.35;4.25;;;25.80;98.70;;;;;;5007580;28;20029;-79
2022/07/13 11:26:46;;;;;;;8.18;3.50;;;27.10;97.80;;;;;;5009429;28;20061;-77
2022/07/13 11:29:18;;;;;;;6.25;3.75;;;28.80;95.20;;;;;;5006296;28;20034;-78
2022/07/13 11:31:45;;;;;;;4.05;3.15;;;29.90;92.30;;;;;;5024690;28;20049;-78
2022/07/13 11:34:11;;;;;;;6.30;3.33;;;31.00;89.20;;;;;;5007368;28;20101;-79
2022/07/13 11:36:42;;;;;;;5.32;3.20;;;31.50;82.70;;;;;;4990438;28;20031;-78
2022/07/13 11:39:25;;;;;;;4.07;2.80;;;32.10;77.30;;;;;;5003142;28;20061;-80
2022/07/13 11:41:52;;;;;;;3.75;2.85;;;32.30;74.40;;;;;;5008872;28;20052;-79
2022/07/13 11:44:30;;;;;;;5.28;3.17;;;33.40;71.00;;;;;;5006680;28;20034;-80
2022/07/13 11:46:58;;;;;;;9.98;3.35;;;33.90;69.60;;;;;;5008595;28;20029;-79
2022/07/13 11:49:24;;;;;;;5.60;2.88;;;34.10;66.90;;;;;;4976330;28;20030;-80
2022/07/13 11:51:51;;;;;;;4.43;2.60;;;34.40;64.50;;;;;;5004376;28;20478;-77
2022/07/13 11:54:18;;;;;;;7.60;3.08;;;34.70;63.40;;;;;;5005853;28;20025;-78
2022/07/13 11:56:53;;;;;;;5.82;3.15;;;33.70;62.70;;;;;;5006275;28;20355;-78
2022/07/13 11:59:42;;;;;;;5.68;2.95;;;32.50;64.90;;;;;;5020271;28;20026;-78
2022/07/13 12:02:10;;;;;;;6.13;3.10;;;31.90;65.40;;;;;;4993288;28;20037;-78
2022/07/13 12:04:46;;;;;;;5.13;2.90;;;31.50;67.30;;;;;;5001887;28;20031;-79
2022/07/13 12:07:18;;;;;;;6.10;3.08;;;31.50;66.40;;;;;;5006398;28;20536;-79
2022/07/13 12:09:49;;;;;;;3.50;2.65;;;31.00;67.30;;;;;;4985740;28;20111;-78
2022/07/13 12:12:16;;;;;;;4.35;3.00;;;30.00;70.10;;;;;;4996226;28;20027;-78
2022/07/13 12:14:44;;;;;;;3.53;2.78;;;30.10;71.80;;;;;;5003350;28;20043;-79
2022/07/13 12:17:10;;;;;;;5.75;3.05;;;30.70;70.80;;;;;;5009184;28;20036;-80
2022/07/13 12:19:37;;;;;;;3.67;2.70;;;30.40;69.80;;;;;;5005818;28;20034;-78
2022/07/13 12:22:05;;;;;;;68.18;59.08;;;30.00;70.40;;;;;;5006983;28;20034;-79
2022/07/13 12:24:31;;;;;;;164.75;142.82;;;30.20;70.50;;;;;;5004629;28;20034;-77
2022/07/13 12:26:57;;;;;;;13.55;8.45;;;29.70;71.30;;;;;;5000132;28;20039;-76
2022/07/13 12:29:30;;;;;;;10.50;7.38;;;29.10;72.70;;;;;;5002759;28;20033;-77
2022/07/13 12:31:57;;;;;;;8.70;3.70;;;28.60;73.60;;;;;;5001010;28;20105;-77
2022/07/13 12:34:23;;;;;;;7.05;4.20;;;28.00;75.10;;;;;;5000587;28;20022;-78
2022/07/13 12:36:49;;;;;;;5.75;4.13;;;28.00;73.80;;;;;;5002500;28;20022;-79
2022/07/13 12:39:18;;;;;;;6.50;3.35;;;27.90;74.40;;;;;;5003358;28;20019;-79
2022/07/13 12:41:55;;;;;;;5.10;3.33;;;28.10;74.60;;;;;;4999144;28;20446;-78
2022/07/13 12:44:29;;;;;;;4.32;3.40;;;28.80;73.20;;;;;;5002261;28;20033;-78
2022/07/13 12:46:58;;;;;;;5.85;3.80;;;29.30;69.70;;;;;;5002325;28;20493;-79
2022/07/13 12:49:38;;;;;;;5.47;3.90;;;29.40;69.80;;;;;;5001892;28;20026;-78
2022/07/13 12:52:06;;;;;;;6.00;3.50;;;30.10;69.20;;;;;;5002482;28;20427;-78
2022/07/13 12:54:48;;;;;;;6.65;3.60;;;30.50;67.00;;;;;;5000686;28;20088;-78
2022/07/13 12:57:18;;;;;;;4.88;3.58;;;30.80;66.10;;;;;;5001323;28;20021;-78
2022/07/13 13:00:08;;;;;;;5.20;3.43;;;30.90;65.30;;;;;;5003042;28;20029;-78
2022/07/13 13:02:35;;;;;;;4.57;3.83;;;30.50;65.70;;;;;;4998172;28;20034;-77
2022/07/13 13:05:02;;;;;;;5.28;3.13;;;30.40;66.50;;;;;;4999818;28;20121;-80
2022/07/13 13:07:29;;;;;;;3.47;3.08;;;30.60;67.30;;;;;;5000765;28;20022;-79
2022/07/13 13:09:55;;;;;;;8.48;3.25;;;30.60;64.40;;;;;;4998029;28;20553;-79
2022/07/13 13:12:21;;;;;;;3.88;3.28;;;30.60;63.40;;;;;;5013995;28;20076;-79
2022/07/13 13:14:46;;;;;;;5.15;2.80;;;30.40;64.40;;;;;;5020402;28;20022;-83
2022/07/13 13:17:12;;;;;;;3.97;2.38;;;31.00;63.40;;;;;;5019542;28;20049;-80
2022/07/13 13:19:39;;;;;;;3.58;2.42;;;31.80;60.00;;;;;;5014933;28;20030;-79
2022/07/13 13:22:06;;;;;;;4.78;2.40;;;31.90;60.20;;;;;;4986119;28;20057;-78
2022/07/13 13:24:31;;;;;;;2.80;2.17;;;32.20;57.80;;;;;;5002554;28;20464;-79
2022/07/13 13:26:57;;;;;;;3.22;2.42;;;33.10;55.40;;;;;;5002929;28;20085;-78
2022/07/13 13:32:07;;;;;;;5.00;2.40;;;34.40;51.60;;;;;;5003247;28;20164;-78
2022/07/13 13:34:33;;;;;;;4.28;2.08;;;35.00;50.90;;;;;;4982127;28;20058;-79
2022/07/13 13:36:59;;;;;;;4.50;2.60;;;35.10;50.00;;;;;;5001696;28;20583;-77
2022/07/13 13:39:25;;;;;;;4.80;2.47;;;35.70;49.40;;;;;;5000132;28;20018;-79
2022/07/13 13:41:50;;;;;;;3.30;2.20;;;35.70;49.80;;;;;;4999804;28;20029;-79
2022/07/13 13:44:17;;;;;;;3.63;1.85;;;36.00;48.00;;;;;;5000643;28;20409;-79